Time;durP1;ratioP1;P1;durP2;ratioP2;P2;SDS_P1;SDS_P2;PMS_P1;PMS_P2;Temp;Humidity;BMP_temperature;BMP_pressure;BME280_temperature;BME280_humidity;BME280_pressure;Samples;Min_cycle;Max_cycle;Signal;HPM_P1;HPM_P2
2021/07/20 00:57:47;;;;;;;10.43;5.57;;;14.70;99.90;;;;;;5094320;28;20028;-81
2021/07/20 01:00:35;;;;;;;11.73;5.07;;;14.80;99.90;;;;;;5078208;28;20017;-82
2021/07/20 01:03:22;;;;;;;10.90;5.40;;;14.80;99.90;;;;;;5087212;28;20041;-82
2021/07/20 01:06:10;;;;;;;8.82;5.35;;;14.90;99.90;;;;;;5079057;28;20024;-82
2021/07/20 01:09:04;;;;;;;10.65;5.35;;;16.10;99.90;;;;;;5077451;28;20084;-80
2021/07/20 01:11:51;;;;;;;10.48;5.03;;;14.90;99.90;;;;;;5136158;22;20104;-82
2021/07/20 01:14:41;;;;;;;9.48;4.97;;;14.80;99.90;;;;;;5067977;28;20084;-82
2021/07/20 01:17:29;;;;;;;9.88;5.38;;;14.90;99.90;;;;;;5074199;28;20013;-80
2021/07/20 01:20:19;;;;;;;9.20;5.28;;;14.90;99.90;;;;;;5073780;28;20082;-81
2021/07/20 01:23:17;;;;;;;10.93;5.35;;;14.90;99.90;;;;;;5073203;28;20105;-81
2021/07/20 01:26:06;;;;;;;8.38;4.85;;;14.90;99.90;;;;;;5081305;28;20088;-82
2021/07/20 01:28:54;;;;;;;11.20;4.80;;;15.00;99.90;;;;;;5103039;28;20080;-82
2021/07/20 01:31:43;;;;;;;9.95;5.20;;;15.10;99.90;;;;;;5095878;28;20089;-81
2021/07/20 01:34:31;;;;;;;14.27;4.93;;;15.10;99.90;;;;;;5097080;28;20034;-82
2021/07/20 01:37:19;;;;;;;9.15;4.70;;;15.00;99.90;;;;;;5087830;28;20055;-81
2021/07/20 01:40:09;;;;;;;10.50;5.40;;;15.00;99.90;;;;;;5091471;28;20038;-83
2021/07/20 01:42:58;;;;;;;11.15;5.40;;;15.10;99.90;;;;;;5077659;28;20076;-82
2021/07/20 01:45:46;;;;;;;10.15;4.93;;;15.10;99.90;;;;;;5086073;28;20087;-81
2021/07/20 01:48:36;;;;;;;11.88;5.28;;;15.10;99.90;;;;;;5089143;28;20031;-81
2021/07/20 01:51:25;;;;;;;11.23;5.57;;;15.00;99.90;;;;;;5078439;28;20307;-81
2021/07/20 01:54:12;;;;;;;10.77;4.83;;;15.10;99.90;;;;;;5077921;28;20092;-80
2021/07/20 01:56:59;;;;;;;9.88;4.75;;;15.10;99.90;;;;;;5089584;28;20335;-82
2021/07/20 01:59:48;;;;;;;9.35;5.28;;;15.00;99.90;;;;;;5079498;28;20095;-81
2021/07/20 02:02:50;;;;;;;9.32;5.03;;;15.10;99.90;;;;;;5074420;28;20035;-81
2021/07/20 02:08:49;;;;;;;8.73;4.70;;;15.50;99.90;;;;;;5094935;28;20051;-81
2021/07/20 02:11:39;;;;;;;10.85;4.53;;;14.90;99.90;;;;;;5089008;28;20055;-81
2021/07/20 02:14:29;;;;;;;;;;;14.90;99.90;;;;;;5100868;28;20035;-81
2021/07/20 02:17:20;;;;;;;9.90;4.75;;;14.90;99.90;;;;;;5102598;28;19910;-81
2021/07/20 02:20:10;;;;;;;8.00;4.18;;;14.90;99.90;;;;;;5099589;28;20032;-82
2021/07/20 02:22:58;;;;;;;8.93;4.65;;;14.90;99.90;;;;;;5097850;28;20040;-82
2021/07/20 02:25:48;;;;;;;8.57;4.75;;;14.80;99.90;;;;;;5103550;28;20095;-79
2021/07/20 02:28:41;;;;;;;9.25;4.75;;;14.80;99.90;;;;;;5113238;28;20054;-81
2021/07/20 02:31:29;;;;;;;10.15;4.72;;;14.80;99.90;;;;;;5099023;28;20032;-80
2021/07/20 02:34:19;;;;;;;8.55;4.68;;;14.80;99.90;;;;;;5116271;28;20035;-81
2021/07/20 02:37:07;;;;;;;9.13;4.20;;;14.90;99.90;;;;;;5103068;28;20043;-81
2021/07/20 02:39:56;;;;;;;9.15;4.40;;;14.90;99.90;;;;;;5102791;28;20021;-81
2021/07/20 02:42:44;;;;;;;7.85;4.47;;;15.00;99.90;;;;;;5106557;28;20083;-81
2021/07/20 02:45:34;;;;;;;9.00;4.72;;;15.00;99.90;;;;;;5100799;28;20024;-82
2021/07/20 02:48:23;;;;;;;8.75;4.60;;;15.00;99.90;;;;;;5118488;28;20095;-81
2021/07/20 02:51:15;;;;;;;8.55;4.28;;;14.90;99.90;;;;;;5095157;28;20020;-81
2021/07/20 02:54:03;;;;;;;7.35;4.18;;;14.90;99.90;;;;;;5103139;28;20087;-82
2021/07/20 02:56:51;;;;;;;8.07;4.30;;;14.90;99.90;;;;;;5100730;28;20016;-80
2021/07/20 02:59:41;;;;;;;10.13;4.40;;;14.90;99.90;;;;;;5098427;28;20074;-81
2021/07/20 03:02:28;;;;;;;8.40;4.27;;;14.80;99.90;;;;;;5105401;28;20095;-81
2021/07/20 03:05:16;;;;;;;9.27;4.75;;;14.80;99.90;;;;;;5103681;28;20312;-82
2021/07/20 03:08:08;;;;;;;9.00;4.63;;;14.90;99.90;;;;;;5103725;28;20088;-81
2021/07/20 03:10:56;;;;;;;7.32;4.53;;;14.90;99.90;;;;;;5091841;27;20073;-83
2021/07/20 03:13:47;;;;;;;8.98;4.03;;;14.80;99.90;;;;;;5101449;28;20079;-83
2021/07/20 03:16:37;;;;;;;9.57;4.85;;;14.80;99.90;;;;;;5099877;28;20115;-83
2021/07/20 03:19:26;;;;;;;9.80;4.20;;;14.80;99.90;;;;;;5104130;28;20028;-80
2021/07/20 03:22:17;;;;;;;7.82;4.40;;;14.80;99.90;;;;;;5105547;28;20048;-81
2021/07/20 03:25:07;;;;;;;9.77;3.95;;;14.90;99.90;;;;;;5101200;28;20055;-81
2021/07/20 03:27:55;;;;;;;7.95;4.25;;;14.80;99.90;;;;;;5104547;28;20083;-80
2021/07/20 03:30:44;;;;;;;9.60;4.90;;;14.80;99.90;;;;;;5101471;28;20084;-82
2021/07/20 03:33:31;;;;;;;10.88;4.43;;;14.80;99.90;;;;;;5095602;28;20028;-80
2021/07/20 03:36:19;;;;;;;7.82;4.38;;;14.90;99.90;;;;;;5098968;28;20087;-81
2021/07/20 03:39:07;;;;;;;8.68;4.20;;;14.90;99.90;;;;;;5100373;28;20075;-80
2021/07/20 03:41:56;;;;;;;6.78;4.25;;;14.90;99.90;;;;;;5100649;28;20042;-81
2021/07/20 03:44:44;;;;;;;9.93;4.70;;;14.90;99.90;;;;;;5100567;28;20034;-80
2021/07/20 03:47:31;;;;;;;9.57;4.68;;;14.80;99.90;;;;;;5115703;28;20050;-81
2021/07/20 03:50:19;;;;;;;9.52;4.35;;;15.50;99.90;;;;;;5103083;28;20071;-80
2021/07/20 03:53:07;;;;;;;9.63;4.70;;;14.90;99.90;;;;;;5102529;28;20024;-81
2021/07/20 03:55:58;;;;;;;7.60;4.28;;;15.00;99.90;;;;;;5102058;28;20042;-81
2021/07/20 03:58:47;;;;;;;8.73;4.43;;;15.00;99.90;;;;;;5104313;28;20020;-81
2021/07/20 04:01:36;;;;;;;10.10;4.68;;;15.00;99.90;;;;;;5098662;28;20030;-81
2021/07/20 04:04:28;;;;;;;8.77;4.60;;;15.50;99.90;;;;;;5103967;28;20034;-81
2021/07/20 04:07:18;;;;;;;7.93;4.07;;;15.00;99.90;;;;;;5099213;28;20092;-81
2021/07/20 04:10:06;;;;;;;;;;;15.10;99.90;;;;;;5101716;28;20091;-81
2021/07/20 04:12:53;;;;;;;10.65;4.22;;;15.00;99.90;;;;;;5101924;28;19965;-80
2021/07/20 04:15:45;;;;;;;8.30;4.20;;;15.10;99.90;;;;;;5103917;28;20092;-81
2021/07/20 04:18:34;;;;;;;7.68;3.90;;;15.20;99.90;;;;;;5101973;28;20036;-81
2021/07/20 04:21:23;;;;;;;8.00;4.22;;;15.20;99.90;;;;;;5105289;28;20047;-81
2021/07/20 04:24:11;;;;;;;9.25;4.10;;;15.10;99.90;;;;;;5102058;28;20020;-81
2021/07/20 04:27:00;;;;;;;9.57;4.30;;;15.20;99.90;;;;;;5103215;28;20031;-82
2021/07/20 04:29:47;;;;;;;7.20;4.05;;;15.20;99.90;;;;;;5117096;28;20074;-81
2021/07/20 04:32:39;;;;;;;8.02;4.07;;;15.20;99.90;;;;;;5099124;28;20095;-80
2021/07/20 04:35:27;;;;;;;9.07;4.22;;;15.20;99.90;;;;;;5104312;28;20080;-81
2021/07/20 04:38:16;;;;;;;9.50;4.25;;;15.20;99.90;;;;;;5101851;28;20028;-80
2021/07/20 04:41:03;;;;;;;10.38;4.40;;;15.20;99.90;;;;;;5104669;28;20031;-83
2021/07/20 04:43:51;;;;;;;9.10;4.05;;;15.30;99.90;;;;;;5097004;28;20032;-83
2021/07/20 04:46:38;;;;;;;8.27;4.18;;;15.30;99.90;;;;;;5103152;28;20097;-82
2021/07/20 04:49:27;;;;;;;7.82;3.95;;;15.40;99.90;;;;;;5102487;28;20032;-81
2021/07/20 04:52:16;;;;;;;9.70;4.65;;;15.50;99.90;;;;;;5100216;28;20052;-80
2021/07/20 04:55:04;;;;;;;9.73;4.90;;;15.50;99.90;;;;;;5103245;28;20083;-80
2021/07/20 04:57:51;;;;;;;10.02;4.85;;;15.50;99.90;;;;;;5101807;28;20046;-81
2021/07/20 05:00:39;;;;;;;9.02;4.60;;;15.60;99.90;;;;;;5100008;28;20075;-81
2021/07/20 05:03:30;;;;;;;9.85;4.72;;;15.70;99.90;;;;;;5101600;28;20031;-80
2021/07/20 05:06:21;;;;;;;8.57;4.78;;;15.70;99.90;;;;;;5112966;28;20016;-81
2021/07/20 05:09:09;;;;;;;10.77;4.57;;;15.80;99.90;;;;;;5116272;28;20017;-81
2021/07/20 05:11:57;;;;;;;8.70;4.85;;;15.90;99.90;;;;;;5097883;28;20036;-81
2021/07/20 05:14:44;;;;;;;7.10;4.13;;;16.00;99.90;;;;;;5112395;28;20036;-81
2021/07/20 05:17:51;;;;;;;7.82;4.18;;;16.10;99.90;;;;;;5099805;28;20032;-81
2021/07/20 05:20:39;;;;;;;12.00;4.78;;;16.10;99.90;;;;;;5099134;28;20020;-81
2021/07/20 05:23:28;;;;;;;11.13;4.95;;;16.10;99.90;;;;;;5112354;28;20114;-84
2021/07/20 05:26:16;;;;;;;8.90;4.93;;;16.10;99.90;;;;;;5114496;28;20092;-80
2021/07/20 05:29:05;;;;;;;10.98;4.68;;;16.90;99.90;;;;;;5112959;28;20036;-81
2021/07/20 05:31:54;;;;;;;10.65;4.90;;;16.40;99.90;;;;;;5099858;28;20035;-82
2021/07/20 05:34:42;;;;;;;10.13;5.45;;;16.40;99.90;;;;;;5094818;28;20048;-82
2021/07/20 05:37:34;;;;;;;11.65;5.13;;;16.50;99.90;;;;;;5097002;28;20400;-84
2021/07/20 05:40:23;;;;;;;12.60;4.63;;;16.60;99.90;;;;;;5093688;28;20051;-84
2021/07/20 05:43:14;;;;;;;10.15;5.00;;;16.60;99.90;;;;;;5104289;28;20040;-82
2021/07/20 05:46:02;;;;;;;10.73;4.95;;;16.60;99.90;;;;;;5114175;28;20104;-83
2021/07/20 05:48:52;;;;;;;11.40;5.25;;;16.70;99.90;;;;;;5098396;28;20027;-85
2021/07/20 05:51:40;;;;;;;10.88;5.18;;;16.80;99.90;;;;;;5110262;28;20092;-82
2021/07/20 05:54:28;;;;;;;10.15;5.18;;;16.70;99.90;;;;;;5099176;28;20036;-82
2021/07/20 05:57:17;;;;;;;11.38;4.95;;;16.70;99.90;;;;;;5099313;28;20076;-84
2021/07/20 06:00:07;;;;;;;9.80;5.50;;;16.80;99.90;;;;;;5095083;28;20032;-81
2021/07/20 06:02:55;;;;;;;10.15;5.07;;;16.80;99.90;;;;;;5112767;28;20024;-84
2021/07/20 06:05:44;;;;;;;9.30;5.00;;;16.90;99.90;;;;;;5090784;28;20021;-84
2021/07/20 06:08:32;;;;;;;11.50;4.82;;;17.10;99.90;;;;;;5086699;28;20119;-85
2021/07/20 06:11:21;;;;;;;8.82;4.70;;;17.20;99.90;;;;;;5097876;28;20044;-83
2021/07/20 06:14:11;;;;;;;10.73;4.72;;;17.00;99.90;;;;;;5109358;28;20044;-80
2021/07/20 06:16:58;;;;;;;10.15;4.90;;;17.00;99.90;;;;;;5101301;28;20032;-84
2021/07/20 06:19:46;;;;;;;11.32;4.95;;;17.10;99.90;;;;;;5096262;28;20100;-81
2021/07/20 06:22:36;;;;;;;8.85;5.13;;;17.10;99.90;;;;;;5107050;28;20100;-83
2021/07/20 06:25:24;;;;;;;11.13;5.15;;;17.10;99.90;;;;;;5098532;28;20017;-83
2021/07/20 06:28:12;;;;;;;10.63;5.20;;;17.00;99.90;;;;;;5099088;28;20028;-81
2021/07/20 06:31:00;;;;;;;10.18;4.70;;;17.10;99.90;;;;;;5089670;28;20036;-83
2021/07/20 06:33:48;;;;;;;11.70;5.13;;;17.00;99.90;;;;;;5112440;28;20063;-83
2021/07/20 06:36:37;;;;;;;8.88;4.82;;;17.00;99.90;;;;;;5096200;28;20055;-80
2021/07/20 06:39:25;;;;;;;9.33;4.60;;;16.90;99.90;;;;;;5099623;28;20024;-80
2021/07/20 06:42:13;;;;;;;7.88;4.00;;;17.00;99.90;;;;;;5098506;28;20078;-84
2021/07/20 06:45:00;;;;;;;8.48;4.00;;;17.10;99.90;;;;;;5092190;28;20044;-86
2021/07/20 06:47:49;;;;;;;8.75;3.70;;;17.20;99.90;;;;;;5094099;28;20081;-84
2021/07/20 06:50:37;;;;;;;10.32;3.95;;;17.20;99.90;;;;;;5094589;28;20075;-83
2021/07/20 06:53:24;;;;;;;12.23;3.85;;;17.30;99.90;;;;;;5098542;28;20032;-81
2021/07/20 06:56:20;;;;;;;9.32;3.72;;;17.20;99.90;;;;;;5110131;28;20048;-81
2021/07/20 06:59:08;;;;;;;7.10;3.33;;;17.20;99.90;;;;;;5108129;28;20036;-81
2021/07/20 07:02:04;;;;;;;9.02;3.70;;;17.40;99.90;;;;;;5095579;28;20035;-83
2021/07/20 07:05:01;;;;;;;7.20;3.25;;;17.40;99.90;;;;;;5096285;28;20040;-81
2021/07/20 07:07:49;;;;;;;5.47;2.70;;;17.30;99.90;;;;;;5095425;28;20086;-81
2021/07/20 07:10:37;;;;;;;7.20;2.90;;;17.40;99.90;;;;;;5110262;28;20047;-81
2021/07/20 07:13:26;;;;;;;7.00;3.17;;;19.00;99.90;;;;;;5105510;28;20032;-80
2021/07/20 07:16:16;;;;;;;6.57;3.50;;;18.40;99.90;;;;;;5104451;28;20106;-80
2021/07/20 07:19:04;;;;;;;6.10;3.25;;;17.30;99.90;;;;;;5101706;28;20047;-82
2021/07/20 07:21:53;;;;;;;5.82;3.17;;;17.40;99.90;;;;;;5103968;28;20087;-83
2021/07/20 07:24:42;;;;;;;9.50;3.60;;;17.60;99.90;;;;;;5100797;28;20051;-84
2021/07/20 07:27:30;;;;;;;7.07;3.67;;;17.80;99.90;;;;;;5099417;28;20099;-80
2021/07/20 07:30:18;;;;;;;6.75;3.35;;;17.60;99.90;;;;;;5108029;28;20104;-81
2021/07/20 07:33:05;;;;;;;7.22;2.95;;;17.80;99.90;;;;;;5101816;28;20079;-80
2021/07/20 07:35:53;;;;;;;6.38;3.20;;;17.60;99.90;;;;;;5096302;28;20020;-83
2021/07/20 07:38:45;;;;;;;5.82;2.72;;;17.80;99.90;;;;;;5113105;28;20080;-81
2021/07/20 07:41:34;;;;;;;6.50;3.13;;;17.80;99.90;;;;;;5104710;28;20060;-82
2021/07/20 07:44:22;;;;;;;6.22;2.88;;;17.90;99.90;;;;;;5102011;28;20051;-81
2021/07/20 07:47:11;;;;;;;7.47;3.05;;;19.20;99.90;;;;;;5101536;28;20021;-81
2021/07/20 07:50:00;;;;;;;4.80;2.35;;;17.80;99.90;;;;;;5113938;28;20036;-84
2021/07/20 07:52:48;;;;;;;9.07;3.22;;;18.10;99.90;;;;;;5093251;28;20076;-84
2021/07/20 07:55:40;;;;;;;5.47;2.72;;;18.20;99.90;;;;;;5103112;28;20040;-86
2021/07/20 07:58:29;;;;;;;7.70;3.05;;;19.10;99.90;;;;;;5101578;28;20040;-85
2021/07/20 08:01:16;;;;;;;6.50;2.95;;;18.30;99.90;;;;;;5116807;28;20096;-84
2021/07/20 08:04:05;;;;;;;8.43;2.90;;;18.30;99.90;;;;;;5098280;28;20026;-82
2021/07/20 08:06:54;;;;;;;7.07;3.08;;;18.40;99.90;;;;;;5110258;28;20054;-84
2021/07/20 08:09:43;;;;;;;6.47;2.95;;;18.30;99.90;;;;;;5096496;28;20047;-83
2021/07/20 08:12:32;;;;;;;7.57;2.72;;;18.70;99.90;;;;;;5102292;28;20040;-84
2021/07/20 08:15:19;;;;;;;8.10;2.83;;;18.40;99.90;;;;;;5106396;28;20075;-85
2021/07/20 08:18:07;;;;;;;5.03;2.47;;;18.40;99.90;;;;;;5100972;28;20064;-85
2021/07/20 08:21:07;;;;;;;7.85;2.50;;;18.40;99.90;;;;;;5099129;28;20034;-82
2021/07/20 08:23:56;;;;;;;5.03;2.30;;;18.30;99.90;;;;;;5111544;28;20026;-86
2021/07/20 08:26:48;;;;;;;7.90;2.35;;;18.30;99.90;;;;;;5104400;28;20031;-83
2021/07/20 08:29:38;;;;;;;4.60;2.70;;;18.10;99.90;;;;;;5099208;28;20067;-81
2021/07/20 08:32:32;;;;;;;5.47;2.20;;;18.00;99.90;;;;;;5095843;28;20091;-83
2021/07/20 08:35:23;;;;;;;5.03;2.45;;;18.20;99.70;;;;;;5113960;28;20067;-87
2021/07/20 08:38:20;;;;;;;7.22;2.35;;;19.60;99.90;;;;;;5102269;28;20040;-84
2021/07/20 08:41:25;;;;;;;5.63;2.33;;;18.40;99.70;;;;;;5104453;28;20103;-85
2021/07/20 08:44:23;;;;;;;6.65;2.40;;;18.50;99.40;;;;;;5111358;28;20044;-79
2021/07/20 08:47:16;;;;;;;3.38;1.80;;;18.40;99.90;;;;;;5109868;28;20030;-81
2021/07/20 08:50:17;;;;;;;6.55;2.47;;;18.20;99.10;;;;;;5101081;28;20044;-85
2021/07/20 08:53:09;;;;;;;5.75;2.22;;;19.90;99.80;;;;;;5098245;28;20473;-83
2021/07/20 08:56:00;;;;;;;7.15;2.33;;;18.30;99.40;;;;;;5092934;28;20048;-85
2021/07/20 08:58:54;;;;;;;4.40;2.13;;;18.60;99.90;;;;;;5093660;28;20050;-83
2021/07/20 09:01:49;;;;;;;4.82;2.60;;;18.50;99.90;;;;;;5095294;28;20036;-85
2021/07/20 09:04:41;;;;;;;8.23;2.83;;;18.50;99.90;;;;;;5090621;28;20122;-88
2021/07/20 09:07:34;;;;;;;6.60;2.35;;;17.20;99.80;;;;;;5092954;28;20044;-85
2021/07/20 09:10:24;;;;;;;5.25;2.40;;;19.10;99.90;;;;;;5094695;28;20055;-83
2021/07/20 09:13:18;;;;;;;7.25;2.55;;;18.50;99.90;;;;;;5092091;28;20096;-85
2021/07/20 09:16:11;;;;;;;6.90;2.20;;;18.60;98.50;;;;;;5095346;28;20051;-87
2021/07/20 09:19:05;;;;;;;4.80;2.30;;;18.30;99.30;;;;;;5076252;28;20574;-83
2021/07/20 09:22:00;;;;;;;4.45;2.20;;;18.70;99.50;;;;;;5077974;28;20032;-84
2021/07/20 09:24:55;;;;;;;3.90;1.98;;;18.80;98.00;;;;;;5078915;28;20092;-86
2021/07/20 09:27:46;;;;;;;7.70;2.50;;;19.00;98.10;;;;;;5069697;28;20056;-85
2021/07/20 09:30:38;;;;;;;5.47;2.45;;;19.70;98.10;;;;;;5071218;28;20127;-85
2021/07/20 09:33:35;;;;;;;5.38;2.50;;;19.00;98.80;;;;;;5083274;28;20506;-85
2021/07/20 09:36:28;;;;;;;6.43;2.45;;;19.20;99.40;;;;;;5086399;28;20046;-86
2021/07/20 09:39:36;;;;;;;4.93;2.60;;;19.10;98.00;;;;;;5078938;28;20071;-86
2021/07/20 09:42:34;;;;;;;6.43;2.58;;;19.50;98.60;;;;;;5086565;28;20032;-85
2021/07/20 09:45:26;;;;;;;10.48;3.15;;;18.70;98.60;;;;;;5086563;28;20154;-85
2021/07/20 09:48:24;;;;;;;5.63;2.50;;;18.70;98.90;;;;;;5074188;28;20040;-84
2021/07/20 09:51:27;;;;;;;5.25;2.33;;;18.70;98.80;;;;;;5072987;28;20113;-85
2021/07/20 09:54:35;;;;;;;5.47;2.22;;;19.00;98.60;;;;;;5084525;28;20190;-85
2021/07/20 09:57:36;;;;;;;3.30;2.00;;;19.50;97.50;;;;;;5086750;28;20059;-85
2021/07/20 10:00:28;;;;;;;6.75;2.97;;;20.00;97.00;;;;;;5077795;28;20567;-85
2021/07/20 10:03:23;;;;;;;6.03;2.70;;;19.70;97.20;;;;;;5076485;28;20044;-86
2021/07/20 10:06:17;;;;;;;5.90;2.75;;;19.50;97.60;;;;;;5075208;28;20044;-86
2021/07/20 10:09:06;;;;;;;5.05;2.33;;;19.70;97.60;;;;;;5076587;28;20032;-85
2021/07/20 10:11:57;;;;;;;;;;;19.80;97.20;;;;;;5072736;28;20040;-85
2021/07/20 10:14:52;;;;;;;6.30;2.45;;;19.70;96.10;;;;;;5052765;28;19927;-81
2021/07/20 10:17:47;;;;;;;4.88;2.55;;;19.30;96.80;;;;;;5057710;28;20055;-82
2021/07/20 10:20:40;;;;;;;7.18;2.80;;;19.50;97.50;;;;;;5076643;28;20613;-86
2021/07/20 10:23:34;;;;;;;4.78;2.45;;;19.10;98.10;;;;;;5056682;28;20143;-83
2021/07/20 10:26:46;;;;;;;5.07;2.60;;;19.20;97.10;;;;;;5073628;28;20036;-85
2021/07/20 10:29:50;;;;;;;5.07;2.80;;;19.10;97.60;;;;;;5077940;28;20043;-85
2021/07/20 10:32:47;;;;;;;6.32;2.65;;;18.90;98.10;;;;;;5066392;28;20129;-86
2021/07/20 10:35:40;;;;;;;6.05;2.80;;;19.00;98.70;;;;;;5055866;28;20484;-86
2021/07/20 10:38:38;;;;;;;4.90;2.78;;;19.20;98.30;;;;;;5062098;28;20580;-86
2021/07/20 10:41:31;;;;;;;8.63;2.90;;;19.40;97.80;;;;;;5072212;28;20050;-85
2021/07/20 10:44:24;;;;;;;6.00;2.70;;;19.50;97.70;;;;;;5080949;28;20044;-86
2021/07/20 10:47:16;;;;;;;5.00;2.10;;;19.70;97.50;;;;;;5068883;28;20048;-84
2021/07/20 10:50:06;;;;;;;7.07;2.83;;;20.00;98.10;;;;;;5074401;28;20519;-81
2021/07/20 10:53:10;;;;;;;5.40;2.75;;;20.10;96.50;;;;;;5060257;28;20420;-84
2021/07/20 10:56:05;;;;;;;6.30;2.38;;;20.10;96.30;;;;;;5070639;28;20135;-86
2021/07/20 10:59:00;;;;;;;4.75;2.30;;;20.40;96.20;;;;;;5075687;28;20076;-86
2021/07/20 11:01:56;;;;;;;5.47;2.42;;;21.10;96.30;;;;;;5071640;28;20040;-86
2021/07/20 11:04:52;;;;;;;7.75;2.65;;;19.90;95.60;;;;;;5082983;28;20036;-84
2021/07/20 11:07:44;;;;;;;3.90;2.33;;;19.80;96.70;;;;;;5069314;28;20055;-86
2021/07/20 11:10:35;;;;;;;5.13;2.90;;;20.10;96.10;;;;;;5071332;28;20045;-86
2021/07/20 11:13:27;;;;;;;3.95;2.30;;;20.30;96.00;;;;;;5074023;28;20036;-84
2021/07/20 11:16:15;;;;;;;5.22;2.42;;;20.70;95.40;;;;;;5070930;28;20044;-87
2021/07/20 11:19:04;;;;;;;5.33;2.40;;;22.30;95.40;;;;;;5077543;28;20044;-84
2021/07/20 11:21:56;;;;;;;5.35;2.47;;;21.40;94.50;;;;;;5079504;28;20185;-83
2021/07/20 11:24:45;;;;;;;4.28;2.25;;;20.70;94.90;;;;;;5073170;28;20350;-86
2021/07/20 11:27:34;;;;;;;4.88;2.55;;;21.00;94.70;;;;;;5074905;28;20415;-83
2021/07/20 11:30:22;;;;;;;7.20;2.50;;;20.10;96.20;;;;;;5085748;28;20149;-85
2021/07/20 11:33:14;;;;;;;5.05;2.67;;;20.30;96.50;;;;;;5093624;28;20170;-82
2021/07/20 11:36:13;;;;;;;8.10;2.53;;;20.40;95.70;;;;;;5101096;28;20083;-79
2021/07/20 11:39:04;;;;;;;7.05;3.00;;;20.70;96.20;;;;;;5076698;28;20039;-86
2021/07/20 11:41:59;;;;;;;4.13;2.28;;;19.90;96.30;;;;;;5091906;28;20655;-86
2021/07/20 11:44:52;;;;;;;7.65;2.92;;;20.20;96.20;;;;;;5081960;28;20117;-84
2021/07/20 11:47:47;;;;;;;7.68;3.20;;;20.30;95.90;;;;;;5081521;28;20037;-86
2021/07/20 11:50:41;;;;;;;6.28;3.10;;;20.20;96.40;;;;;;5073897;28;20074;-85
2021/07/20 11:53:36;;;;;;;6.85;3.25;;;19.40;97.30;;;;;;5094242;28;20189;-85
2021/07/20 11:56:27;;;;;;;9.52;3.10;;;19.60;97.00;;;;;;5078619;28;20427;-83
2021/07/20 11:59:48;;;;;;;5.25;2.78;;;19.80;96.60;;;;;;5075436;28;20159;-84
2021/07/20 12:03:08;;;;;;;7.45;2.47;;;20.30;96.10;;;;;;5075974;28;20033;-83
2021/07/20 12:06:02;;;;;;;5.28;2.80;;;20.50;95.30;;;;;;5091605;28;20036;-85
2021/07/20 12:09:08;;;;;;;9.05;3.20;;;22.00;95.20;;;;;;5079125;28;20133;-83
2021/07/20 12:11:58;;;;;;;8.13;3.47;;;20.20;95.60;;;;;;5090238;28;20097;-83
2021/07/20 12:14:45;;;;;;;8.15;3.08;;;20.10;95.10;;;;;;5073686;28;20048;-86
2021/07/20 12:17:32;;;;;;;6.07;2.80;;;20.00;95.50;;;;;;5077128;28;20048;-86
2021/07/20 12:20:22;;;;;;;7.68;3.10;;;20.20;95.70;;;;;;5077804;28;20503;-84
2021/07/20 12:23:10;;;;;;;7.75;2.78;;;20.60;96.80;;;;;;5071210;28;20173;-85
2021/07/20 12:25:58;;;;;;;6.35;3.22;;;21.00;97.50;;;;;;5078532;28;20521;-84
2021/07/20 12:28:48;;;;;;;6.57;3.25;;;20.70;94.50;;;;;;5078357;28;20040;-86
2021/07/20 12:31:37;;;;;;;4.55;2.38;;;20.50;95.00;;;;;;5074567;28;20072;-84
2021/07/20 12:34:24;;;;;;;10.25;2.92;;;20.60;95.30;;;;;;5077038;28;20440;-86
2021/07/20 12:37:12;;;;;;;6.55;2.75;;;20.90;95.50;;;;;;5074992;28;20055;-86
2021/07/20 12:39:59;;;;;;;5.03;2.65;;;21.30;96.90;;;;;;5072805;28;20049;-85
2021/07/20 12:42:46;;;;;;;7.85;3.10;;;22.00;95.10;;;;;;5089191;28;20036;-86
2021/07/20 12:45:35;;;;;;;5.68;3.10;;;22.10;94.60;;;;;;5070681;28;20095;-84
2021/07/20 12:48:24;;;;;;;7.85;2.88;;;22.30;94.50;;;;;;5074013;28;20075;-85
2021/07/20 12:51:12;;;;;;;7.00;2.63;;;22.50;94.30;;;;;;5065000;28;20059;-86
2021/07/20 12:54:00;;;;;;;5.68;2.75;;;22.30;93.80;;;;;;5067401;28;20487;-85
2021/07/20 12:56:47;;;;;;;4.43;2.50;;;22.10;92.40;;;;;;5072456;28;20080;-86
2021/07/20 12:59:34;;;;;;;5.40;2.70;;;21.90;92.60;;;;;;5070012;28;20110;-84
2021/07/20 13:02:24;;;;;;;7.65;2.50;;;21.70;93.30;;;;;;5073939;28;20178;-86
2021/07/20 13:05:14;;;;;;;8.35;3.45;;;21.60;92.10;;;;;;5076663;28;20548;-87
2021/07/20 13:08:02;;;;;;;4.72;2.63;;;21.60;93.30;;;;;;5078052;28;20502;-85
2021/07/20 13:13:18;;;;;;;5.72;2.50;;;21.30;93.60;;;;;;5068339;28;20040;-84
2021/07/20 13:16:06;;;;;;;10.20;2.92;;;21.50;93.30;;;;;;5065641;28;20174;-86
2021/07/20 13:18:56;;;;;;;5.57;2.88;;;22.00;92.90;;;;;;5072537;28;20060;-84
2021/07/20 13:21:44;;;;;;;;;;;22.00;92.30;;;;;;5047667;28;20044;-84
2021/07/20 13:24:31;;;;;;;7.45;2.63;;;22.00;91.40;;;;;;5053659;28;19921;-84
2021/07/20 13:27:18;;;;;;;6.03;2.67;;;21.90;92.20;;;;;;5069028;28;20190;-84
2021/07/20 13:30:08;;;;;;;4.97;2.47;;;22.10;92.80;;;;;;5051546;28;20514;-84
2021/07/20 13:32:55;;;;;;;4.60;2.33;;;22.20;91.20;;;;;;5053896;28;20268;-84
2021/07/20 13:35:43;;;;;;;7.55;2.80;;;22.50;91.60;;;;;;5046164;28;20121;-84
2021/07/20 13:38:33;;;;;;;6.78;3.05;;;22.70;91.10;;;;;;5064876;28;20101;-84
2021/07/20 13:41:21;;;;;;;5.43;2.85;;;22.60;91.30;;;;;;5053199;28;20097;-83
2021/07/20 13:44:10;;;;;;;5.38;2.70;;;22.70;91.30;;;;;;5046513;28;20040;-86
2021/07/20 13:46:59;;;;;;;5.70;2.88;;;22.90;91.10;;;;;;5064134;28;20129;-83
2021/07/20 13:49:50;;;;;;;6.38;2.78;;;23.20;90.00;;;;;;5050623;28;20418;-84
2021/07/20 13:52:38;;;;;;;6.10;3.00;;;23.60;90.90;;;;;;5058478;28;20048;-85
2021/07/20 13:55:28;;;;;;;4.63;2.47;;;23.80;90.00;;;;;;5045857;28;20119;-84
2021/07/20 13:58:17;;;;;;;5.22;2.90;;;24.30;89.30;;;;;;5057016;28;20048;-83
2021/07/20 14:01:05;;;;;;;5.97;2.88;;;23.60;89.00;;;;;;5039976;28;20226;-84
2021/07/20 14:03:53;;;;;;;6.03;2.90;;;23.50;90.40;;;;;;5043183;28;20044;-85
2021/07/20 14:06:41;;;;;;;6.95;2.92;;;22.70;91.30;;;;;;5059891;28;20141;-84
2021/07/20 14:09:31;;;;;;;6.95;3.00;;;22.60;90.40;;;;;;5049409;28;20495;-85
2021/07/20 14:12:19;;;;;;;7.13;3.25;;;22.60;92.00;;;;;;5060772;28;20503;-83
2021/07/20 14:15:09;;;;;;;5.05;2.72;;;22.80;90.50;;;;;;5072611;28;20036;-83
2021/07/20 14:17:58;;;;;;;7.43;3.10;;;22.90;90.50;;;;;;5074961;28;20101;-83
2021/07/20 14:20:45;;;;;;;5.95;2.95;;;22.60;90.90;;;;;;5073680;28;20040;-84
2021/07/20 14:23:36;;;;;;;7.07;2.78;;;22.40;91.10;;;;;;5076608;28;20154;-84
2021/07/20 14:26:25;;;;;;;7.35;2.80;;;22.70;91.80;;;;;;5076022;28;20099;-85
2021/07/20 14:29:15;;;;;;;6.75;3.13;;;23.10;91.30;;;;;;5077013;28;20052;-84
2021/07/20 14:32:10;;;;;;;6.72;2.80;;;23.60;90.70;;;;;;5089829;28;20048;-84
2021/07/20 14:35:00;;;;;;;4.97;2.80;;;23.60;91.10;;;;;;5075620;28;20174;-83
2021/07/20 14:37:53;;;;;;;7.68;3.13;;;24.20;90.20;;;;;;5090124;28;20130;-83
2021/07/20 14:40:41;;;;;;;6.07;2.78;;;24.20;89.60;;;;;;5086758;28;20181;-84
2021/07/20 14:43:34;;;;;;;6.35;3.00;;;23.80;89.10;;;;;;5076861;28;20407;-83
2021/07/20 14:46:21;;;;;;;5.22;2.92;;;23.20;90.70;;;;;;5088155;28;20040;-85
2021/07/20 14:49:17;;;;;;;7.80;3.40;;;22.90;90.70;;;;;;5072097;28;20510;-85
2021/07/20 14:52:05;;;;;;;5.53;3.15;;;22.80;91.00;;;;;;5072567;28;20083;-85
2021/07/20 14:55:09;;;;;;;6.93;3.03;;;22.90;91.30;;;;;;5087879;28;20158;-84
2021/07/20 14:58:04;;;;;;;5.82;3.38;;;22.90;90.70;;;;;;5070124;28;20048;-85
2021/07/20 15:01:06;;;;;;;6.53;3.50;;;23.10;90.90;;;;;;5067867;28;20054;-85
2021/07/20 15:03:55;;;;;;;4.95;2.78;;;22.90;90.70;;;;;;5089503;28;20040;-83
2021/07/20 15:06:47;;;;;;;6.72;3.30;;;22.90;91.80;;;;;;5085135;28;20048;-83
2021/07/20 15:09:34;;;;;;;6.53;3.50;;;23.00;91.50;;;;;;5075350;28;20145;-84
2021/07/20 15:12:23;;;;;;;5.22;3.10;;;22.50;91.40;;;;;;5076548;28;20058;-83
2021/07/20 15:15:16;;;;;;;6.53;3.40;;;22.20;91.30;;;;;;5090131;28;20523;-84
2021/07/20 15:18:04;;;;;;;6.55;3.40;;;22.20;91.60;;;;;;5086044;28;20050;-84
2021/07/20 15:20:54;;;;;;;7.35;3.90;;;22.30;92.20;;;;;;5070856;28;20044;-83
2021/07/20 15:23:41;;;;;;;7.53;3.72;;;22.00;91.00;;;;;;5072973;28;20040;-84
2021/07/20 15:26:28;;;;;;;5.85;3.30;;;21.90;92.30;;;;;;5088771;28;20052;-85
2021/07/20 15:29:17;;;;;;;6.65;3.78;;;21.90;92.60;;;;;;5071587;28;20048;-83
2021/07/20 15:32:04;;;;;;;7.87;3.57;;;21.90;92.50;;;;;;5073891;28;20052;-83
2021/07/20 15:34:54;;;;;;;7.10;3.53;;;21.90;92.00;;;;;;5073968;28;20787;-83
2021/07/20 15:37:44;;;;;;;;;;;21.80;92.10;;;;;;5093873;28;20044;-82
2021/07/20 15:40:31;;;;;;;5.90;3.20;;;22.00;92.00;;;;;;5093079;28;20019;-85
2021/07/20 15:43:20;;;;;;;7.72;3.85;;;22.10;92.20;;;;;;5073710;28;20040;-83
2021/07/20 15:46:08;;;;;;;5.70;3.13;;;22.10;91.80;;;;;;5080078;28;20040;-84
2021/07/20 15:48:56;;;;;;;6.13;3.25;;;22.20;92.20;;;;;;5079314;28;20040;-83